Time;durP1;ratioP1;P1;durP2;ratioP2;P2;SDS_P1;SDS_P2;PMS_P1;PMS_P2;Temp;Humidity;BMP_temperature;BMP_pressure;BME280_temperature;BME280_humidity;BME280_pressure;Samples;Min_cycle;Max_cycle;Signal;HPM_P1;HPM_P2
2021/07/07 00:02:13;;;;;;;1.50;1.40;;;17.30;99.90;;;;;;4957934;28;20108;-85
2021/07/07 00:04:39;;;;;;;1.50;1.40;;;17.30;99.90;;;;;;4943923;28;20401;-85
2021/07/07 00:07:05;;;;;;;1.83;1.65;;;17.30;99.90;;;;;;4966015;28;20630;-85
2021/07/07 00:09:30;;;;;;;1.30;1.20;;;17.20;99.90;;;;;;4970872;28;20053;-86
2021/07/07 00:11:56;;;;;;;1.40;1.30;;;17.20;99.90;;;;;;4969125;28;20049;-86
2021/07/07 00:14:23;;;;;;;3.90;1.33;;;17.20;99.90;;;;;;4966344;28;20536;-86
2021/07/07 00:16:49;;;;;;;1.30;1.20;;;17.20;99.90;;;;;;4984372;28;20027;-86
2021/07/07 00:19:15;;;;;;;1.60;1.50;;;17.30;99.90;;;;;;4953480;28;20045;-86
2021/07/07 00:21:41;;;;;;;2.35;1.35;;;17.20;99.90;;;;;;4970987;28;20030;-86
2021/07/07 00:24:06;;;;;;;2.42;1.00;;;17.20;99.90;;;;;;4953634;28;20430;-86
2021/07/07 00:26:32;;;;;;;0.85;0.85;;;17.20;99.90;;;;;;4961646;28;20035;-85
2021/07/07 00:28:58;;;;;;;1.77;1.33;;;17.20;99.90;;;;;;4969587;28;20126;-86
2021/07/07 00:31:24;;;;;;;1.27;1.20;;;17.20;99.90;;;;;;4960863;28;20453;-85
2021/07/07 00:33:49;;;;;;;1.40;1.30;;;17.20;99.90;;;;;;4962690;28;20082;-86
2021/07/07 00:36:15;;;;;;;1.30;1.20;;;17.20;99.90;;;;;;4962381;28;20030;-86
2021/07/07 00:38:41;;;;;;;1.60;1.50;;;17.20;99.90;;;;;;4965329;28;20613;-87
2021/07/07 00:41:07;;;;;;;1.80;1.33;;;17.20;99.90;;;;;;4964981;28;21419;-86
2021/07/07 00:43:33;;;;;;;1.30;1.20;;;17.20;99.90;;;;;;4958048;28;20061;-86
2021/07/07 00:46:00;;;;;;;2.80;1.70;;;17.20;99.90;;;;;;4942318;28;20069;-86
2021/07/07 00:48:26;;;;;;;2.58;1.30;;;17.20;99.90;;;;;;4976124;28;20045;-87
2021/07/07 00:50:52;;;;;;;1.50;1.40;;;17.10;99.90;;;;;;4956088;28;20031;-86
2021/07/07 00:53:18;;;;;;;1.50;1.40;;;17.20;99.90;;;;;;4979838;28;20062;-86
2021/07/07 00:55:45;;;;;;;1.40;1.30;;;17.10;99.90;;;;;;4965847;28;20022;-86
2021/07/07 00:58:11;;;;;;;1.23;1.13;;;17.10;99.90;;;;;;4948290;28;20057;-86
2021/07/07 01:01:02;;;;;;;1.98;1.20;;;17.10;99.90;;;;;;4962529;28;20212;-87
2021/07/07 01:03:28;;;;;;;1.25;1.15;;;17.10;99.90;;;;;;4974588;28;20037;-85
2021/07/07 01:05:53;;;;;;;1.00;1.00;;;17.10;99.90;;;;;;4975755;28;20038;-86
2021/07/07 01:08:19;;;;;;;2.35;0.93;;;17.10;99.90;;;;;;4959795;28;20524;-86
2021/07/07 01:10:45;;;;;;;0.90;0.90;;;17.10;99.90;;;;;;4952744;28;20508;-85
2021/07/07 01:13:13;;;;;;;1.35;1.05;;;17.10;99.90;;;;;;4974012;28;20034;-86
2021/07/07 01:15:41;;;;;;;1.20;1.10;;;17.10;99.90;;;;;;4975740;28;20113;-86
2021/07/07 01:18:07;;;;;;;1.27;1.17;;;17.00;99.90;;;;;;4953630;28;20524;-86
2021/07/07 01:20:33;;;;;;;1.88;1.00;;;16.90;99.90;;;;;;4970774;28;20050;-86
2021/07/07 01:22:58;;;;;;;1.40;1.00;;;16.90;99.90;;;;;;4965149;28;20043;-86
2021/07/07 01:25:25;;;;;;;1.40;1.30;;;16.90;99.90;;;;;;4938278;28;20039;-86
2021/07/07 01:27:53;;;;;;;1.40;1.30;;;16.80;99.90;;;;;;4957048;28;20550;-86
2021/07/07 01:30:21;;;;;;;1.30;1.20;;;16.80;99.90;;;;;;4951550;28;20086;-86
2021/07/07 01:32:48;;;;;;;1.48;1.20;;;16.80;99.90;;;;;;4992922;28;20034;-86
2021/07/07 01:35:15;;;;;;;2.70;1.30;;;16.80;99.90;;;;;;4973611;28;20034;-86
2021/07/07 01:37:42;;;;;;;1.35;1.00;;;16.80;99.90;;;;;;4977793;28;20030;-86
2021/07/07 01:40:08;;;;;;;1.88;1.13;;;16.70;99.90;;;;;;4951011;28;20402;-87
2021/07/07 01:42:34;;;;;;;1.50;1.25;;;16.70;99.90;;;;;;4969377;28;20089;-86
2021/07/07 01:45:00;;;;;;;1.13;1.02;;;16.70;99.90;;;;;;4953840;28;20034;-86
2021/07/07 01:47:26;;;;;;;1.30;1.20;;;16.60;99.90;;;;;;4974359;28;20413;-86
2021/07/07 01:49:52;;;;;;;1.27;1.17;;;16.50;99.90;;;;;;4940171;28;20039;-86
2021/07/07 01:52:18;;;;;;;0.90;0.88;;;16.50;99.90;;;;;;4963664;28;20030;-85
2021/07/07 01:54:44;;;;;;;1.73;1.20;;;16.50;99.90;;;;;;4966458;28;20031;-86
2021/07/07 01:57:09;;;;;;;1.83;1.00;;;16.50;99.90;;;;;;4970254;28;20046;-86
2021/07/07 01:59:35;;;;;;;1.08;0.93;;;16.40;99.90;;;;;;4956503;28;20129;-85
2021/07/07 02:02:01;;;;;;;2.92;1.00;;;16.40;99.90;;;;;;4941260;28;20174;-85
2021/07/07 02:04:27;;;;;;;1.17;1.08;;;16.30;99.90;;;;;;4957439;28;20045;-86
2021/07/07 02:06:52;;;;;;;2.25;1.10;;;16.30;99.90;;;;;;4962290;28;20113;-84
2021/07/07 02:09:19;;;;;;;2.10;1.00;;;16.30;99.90;;;;;;4980318;28;20116;-83
2021/07/07 02:11:48;;;;;;;1.73;1.17;;;16.30;99.90;;;;;;4974180;28;20038;-84
2021/07/07 02:14:15;;;;;;;1.17;1.08;;;16.30;99.90;;;;;;4973686;28;20169;-85
2021/07/07 02:16:41;;;;;;;2.53;0.93;;;16.30;99.90;;;;;;4964866;28;20103;-85
2021/07/07 02:19:07;;;;;;;1.67;0.90;;;16.30;99.90;;;;;;4963320;28;20101;-85
2021/07/07 02:21:33;;;;;;;1.05;1.05;;;16.30;99.90;;;;;;4979952;28;20031;-84
2021/07/07 02:23:59;;;;;;;2.28;0.93;;;16.20;99.90;;;;;;4953965;28;20139;-84
2021/07/07 02:26:24;;;;;;;2.70;1.20;;;16.20;99.90;;;;;;4974645;28;20720;-85
2021/07/07 02:28:50;;;;;;;1.23;1.13;;;16.20;99.90;;;;;;4970374;28;20023;-85
2021/07/07 02:31:16;;;;;;;1.08;1.02;;;16.20;99.90;;;;;;4957233;28;20117;-85
2021/07/07 02:33:42;;;;;;;1.75;1.10;;;16.10;99.90;;;;;;4970225;28;20118;-85
2021/07/07 02:36:08;;;;;;;4.43;1.27;;;16.10;99.90;;;;;;4969770;28;20463;-83
2021/07/07 02:38:33;;;;;;;1.75;1.33;;;16.10;99.90;;;;;;4974124;28;20401;-85
2021/07/07 02:41:00;;;;;;;2.50;1.20;;;16.10;99.90;;;;;;4954364;28;20042;-83
2021/07/07 02:43:26;;;;;;;1.58;1.40;;;16.00;99.90;;;;;;4956686;28;20038;-83
2021/07/07 02:45:52;;;;;;;1.50;1.40;;;15.90;99.90;;;;;;4972108;28;20479;-84
2021/07/07 02:48:19;;;;;;;1.35;1.20;;;15.90;99.90;;;;;;4982085;28;20122;-84
2021/07/07 02:50:45;;;;;;;3.55;1.30;;;15.90;99.90;;;;;;4978906;28;20117;-85
2021/07/07 02:53:13;;;;;;;1.48;1.35;;;16.00;99.90;;;;;;4989988;28;20042;-84
2021/07/07 02:55:39;;;;;;;1.50;1.40;;;15.90;99.90;;;;;;4971616;28;20449;-85
2021/07/07 02:58:05;;;;;;;1.90;1.30;;;16.00;99.90;;;;;;4985375;28;20022;-85
2021/07/07 03:00:34;;;;;;;3.33;1.50;;;16.00;99.90;;;;;;4963863;28;20031;-84
2021/07/07 03:03:02;;;;;;;1.25;1.15;;;15.90;99.90;;;;;;4978805;28;20430;-84
2021/07/07 03:05:30;;;;;;;3.35;1.00;;;16.00;99.90;;;;;;4972059;28;20475;-83
2021/07/07 03:07:56;;;;;;;3.13;1.10;;;16.00;99.90;;;;;;4955821;28;20035;-84
2021/07/07 03:10:22;;;;;;;0.98;0.98;;;16.00;99.90;;;;;;4949987;28;20539;-84
2021/07/07 03:12:48;;;;;;;1.40;1.30;;;16.00;99.90;;;;;;4955235;28;20089;-85
2021/07/07 03:15:14;;;;;;;2.05;1.27;;;16.00;99.90;;;;;;4965653;28;20106;-85
2021/07/07 03:17:40;;;;;;;1.65;1.30;;;16.00;99.90;;;;;;4948050;28;20121;-84
2021/07/07 03:20:06;;;;;;;1.27;1.17;;;16.00;99.90;;;;;;4979656;28;20030;-86
2021/07/07 03:22:32;;;;;;;1.40;1.20;;;16.10;99.90;;;;;;4967103;28;20023;-85
2021/07/07 03:24:58;;;;;;;2.78;1.25;;;16.00;99.90;;;;;;4936231;28;20125;-85
2021/07/07 03:27:24;;;;;;;1.42;1.20;;;16.00;99.90;;;;;;4940729;28;20038;-85
2021/07/07 03:29:49;;;;;;;1.40;1.20;;;16.10;99.90;;;;;;4961972;28;20046;-84
2021/07/07 03:32:15;;;;;;;1.38;1.20;;;16.10;99.90;;;;;;4948461;28;20042;-84
2021/07/07 03:34:41;;;;;;;1.27;1.08;;;16.10;99.90;;;;;;4971476;28;20030;-83
2021/07/07 03:37:07;;;;;;;1.40;1.30;;;16.00;99.90;;;;;;4966527;28;20134;-83
2021/07/07 03:39:33;;;;;;;1.67;1.58;;;16.00;99.90;;;;;;4966194;28;20046;-84
2021/07/07 03:41:58;;;;;;;2.60;1.40;;;16.00;99.90;;;;;;4974418;28;20050;-84
2021/07/07 03:44:24;;;;;;;1.40;1.30;;;16.00;99.90;;;;;;4972080;28;20051;-84
2021/07/07 03:46:50;;;;;;;1.20;1.10;;;16.00;99.90;;;;;;4971222;28;20038;-83
2021/07/07 03:49:15;;;;;;;1.40;1.30;;;15.90;99.90;;;;;;4949986;28;20039;-83
2021/07/07 03:51:41;;;;;;;3.13;1.80;;;16.00;99.90;;;;;;4973206;28;20462;-84
2021/07/07 03:54:07;;;;;;;1.63;1.50;;;16.00;99.90;;;;;;4954667;28;20042;-84
2021/07/07 03:56:32;;;;;;;1.15;1.13;;;15.90;99.90;;;;;;4967874;28;20055;-85
2021/07/07 03:58:58;;;;;;;1.27;1.17;;;15.90;99.90;;;;;;4982030;28;20413;-84
2021/07/07 04:01:24;;;;;;;5.50;1.55;;;15.90;99.90;;;;;;4941287;28;20038;-84
2021/07/07 04:03:49;;;;;;;1.38;1.27;;;15.90;99.90;;;;;;4937577;28;20033;-84
2021/07/07 04:06:15;;;;;;;1.50;1.40;;;15.90;99.90;;;;;;4974130;28;20078;-85
2021/07/07 04:08:41;;;;;;;1.27;1.17;;;15.90;99.90;;;;;;4973864;28;20085;-84
2021/07/07 04:11:07;;;;;;;1.45;1.20;;;15.90;99.90;;;;;;4952725;28;20041;-83
2021/07/07 04:13:32;;;;;;;2.80;1.45;;;16.00;99.90;;;;;;4955343;28;20489;-83
2021/07/07 04:15:58;;;;;;;1.17;1.13;;;16.00;99.90;;;;;;4954918;28;20038;-83
2021/07/07 04:18:24;;;;;;;2.90;1.38;;;16.00;99.90;;;;;;4960769;28;20034;-84
2021/07/07 04:20:50;;;;;;;1.80;1.70;;;16.00;99.90;;;;;;4963009;28;20520;-84
2021/07/07 04:23:16;;;;;;;1.52;1.42;;;16.00;99.90;;;;;;4979542;28;20034;-84
2021/07/07 04:25:42;;;;;;;2.53;1.20;;;16.10;99.90;;;;;;4970114;28;20038;-84
2021/07/07 04:28:08;;;;;;;1.20;1.10;;;16.00;99.90;;;;;;4965813;28;20043;-84
2021/07/07 04:30:35;;;;;;;1.40;1.30;;;16.10;99.90;;;;;;4961135;28;20037;-84
2021/07/07 04:33:00;;;;;;;1.23;1.23;;;16.00;99.90;;;;;;4985914;28;20113;-84
2021/07/07 04:35:26;;;;;;;2.75;1.40;;;16.00;99.90;;;;;;4968302;28;20617;-84
2021/07/07 04:37:52;;;;;;;3.58;1.50;;;16.00;99.90;;;;;;4973959;28;20029;-84
2021/07/07 04:40:21;;;;;;;1.33;1.23;;;16.00;99.90;;;;;;4955090;28;20092;-84
2021/07/07 04:42:48;;;;;;;1.33;1.23;;;16.00;99.90;;;;;;4968418;28;20027;-84
2021/07/07 04:45:14;;;;;;;1.80;1.70;;;16.00;99.90;;;;;;4957665;28;20038;-84
2021/07/07 04:47:40;;;;;;;2.83;1.52;;;16.10;99.90;;;;;;4961455;28;21476;-84
2021/07/07 04:50:15;;;;;;;1.33;1.23;;;16.00;99.90;;;;;;4948524;28;20078;-84
2021/07/07 04:52:42;;;;;;;1.40;1.13;;;16.10;99.90;;;;;;4957351;28;20036;-85
2021/07/07 04:55:10;;;;;;;2.13;1.80;;;16.00;99.90;;;;;;4984215;28;20034;-83
2021/07/07 04:57:42;;;;;;;2.65;1.75;;;16.00;99.90;;;;;;4968156;28;20038;-84
2021/07/07 05:00:11;;;;;;;1.35;1.25;;;16.10;99.90;;;;;;4959554;28;20026;-84
2021/07/07 05:02:38;;;;;;;1.58;1.48;;;16.00;99.90;;;;;;4971832;28;20065;-84
2021/07/07 05:05:05;;;;;;;1.60;1.42;;;16.00;99.90;;;;;;4969824;28;20046;-83
2021/07/07 05:07:32;;;;;;;1.63;1.52;;;16.10;99.90;;;;;;4946253;28;20045;-84
2021/07/07 05:09:58;;;;;;;1.83;1.50;;;16.10;99.90;;;;;;4942692;28;20077;-84
2021/07/07 05:12:24;;;;;;;1.73;1.63;;;16.00;99.90;;;;;;4954860;28;20488;-84
2021/07/07 05:14:49;;;;;;;2.35;1.30;;;16.00;99.90;;;;;;4962505;28;20023;-84
2021/07/07 05:17:15;;;;;;;1.90;1.80;;;16.00;99.90;;;;;;4954078;28;20135;-85
2021/07/07 05:19:41;;;;;;;1.90;1.70;;;16.00;99.90;;;;;;4966827;28;20035;-85
2021/07/07 05:22:07;;;;;;;6.55;1.80;;;16.10;99.90;;;;;;4951914;28;20042;-85
2021/07/07 05:24:32;;;;;;;1.50;1.40;;;16.00;99.90;;;;;;4932587;28;20089;-84
2021/07/07 05:27:00;;;;;;;4.53;1.73;;;16.00;99.90;;;;;;4935931;28;20069;-84
2021/07/07 05:29:26;;;;;;;1.85;1.75;;;16.00;99.90;;;;;;4969802;28;20034;-85
2021/07/07 05:31:53;;;;;;;3.50;1.80;;;16.00;99.90;;;;;;4967922;28;20022;-85
2021/07/07 05:34:19;;;;;;;2.55;1.50;;;16.10;99.90;;;;;;4967383;28;20042;-84
2021/07/07 05:36:45;;;;;;;2.70;1.40;;;16.20;99.90;;;;;;4972432;28;20022;-84
2021/07/07 05:39:11;;;;;;;1.60;1.50;;;16.20;99.90;;;;;;4948308;28;20030;-85
2021/07/07 05:41:37;;;;;;;1.75;1.65;;;16.20;99.90;;;;;;4967145;28;20048;-85
2021/07/07 05:44:03;;;;;;;2.55;1.50;;;16.20;99.90;;;;;;4971785;28;20473;-85
2021/07/07 05:46:28;;;;;;;2.05;1.80;;;16.20;99.90;;;;;;4950665;28;20030;-84
2021/07/07 05:48:54;;;;;;;2.17;1.98;;;16.30;99.90;;;;;;4971780;28;20433;-84
2021/07/07 05:51:20;;;;;;;1.50;1.40;;;16.30;99.90;;;;;;4965241;28;20405;-84
2021/07/07 05:53:46;;;;;;;3.53;1.73;;;16.30;99.90;;;;;;4971880;28;20027;-85
2021/07/07 05:56:11;;;;;;;2.60;1.65;;;16.30;99.90;;;;;;4957147;28;20466;-84
2021/07/07 05:58:37;;;;;;;1.60;1.50;;;16.30;99.90;;;;;;4942340;28;20034;-84
2021/07/07 06:01:03;;;;;;;1.67;1.58;;;16.30;99.90;;;;;;4971558;28;20040;-84
2021/07/07 06:03:29;;;;;;;2.88;1.80;;;16.30;99.90;;;;;;4955191;28;20072;-84
2021/07/07 06:05:54;;;;;;;1.70;1.50;;;16.30;99.90;;;;;;4971668;28;20062;-84
2021/07/07 06:08:20;;;;;;;1.52;1.40;;;16.30;99.90;;;;;;4950664;28;20042;-84
2021/07/07 06:10:46;;;;;;;1.63;1.52;;;16.30;99.90;;;;;;4956309;28;20042;-84
2021/07/07 06:13:12;;;;;;;1.70;1.60;;;16.30;99.90;;;;;;4966006;28;20039;-84
2021/07/07 06:15:38;;;;;;;1.42;1.33;;;16.30;99.90;;;;;;4976068;28;20114;-84
2021/07/07 06:18:05;;;;;;;1.60;1.50;;;16.30;99.90;;;;;;4967673;28;20118;-84
2021/07/07 06:20:32;;;;;;;1.70;1.60;;;16.30;99.90;;;;;;4965102;28;20065;-84
2021/07/07 06:22:58;;;;;;;1.60;1.50;;;16.40;99.90;;;;;;4980606;28;20042;-84
2021/07/07 06:25:24;;;;;;;1.50;1.40;;;16.40;99.90;;;;;;4974832;28;20022;-83
2021/07/07 06:27:50;;;;;;;2.13;2.00;;;16.40;99.90;;;;;;4962180;28;20074;-84
2021/07/07 06:30:18;;;;;;;2.33;1.83;;;16.40;99.90;;;;;;4952591;28;20030;-84
2021/07/07 06:32:46;;;;;;;1.70;1.60;;;16.40;99.90;;;;;;4979760;28;20026;-84
2021/07/07 06:35:12;;;;;;;3.15;1.90;;;16.40;99.90;;;;;;4972911;28;20038;-84
2021/07/07 06:37:38;;;;;;;2.10;2.00;;;16.40;99.90;;;;;;4971766;28;20054;-85
2021/07/07 06:40:06;;;;;;;2.08;1.90;;;16.50;99.90;;;;;;4975285;28;20101;-85
2021/07/07 06:42:32;;;;;;;1.92;1.67;;;16.50;99.90;;;;;;4986562;28;20086;-84
2021/07/07 06:44:58;;;;;;;1.90;1.77;;;16.60;99.90;;;;;;4958194;28;20043;-84
2021/07/07 06:47:24;;;;;;;2.00;1.90;;;16.70;99.90;;;;;;4956888;28;20031;-84
2021/07/07 06:49:50;;;;;;;2.00;1.80;;;16.70;99.90;;;;;;4964379;28;20041;-83
2021/07/07 06:52:16;;;;;;;1.95;1.60;;;16.80;99.90;;;;;;4984030;28;20081;-83
2021/07/07 06:54:42;;;;;;;2.03;1.90;;;16.80;99.90;;;;;;4970580;28;20022;-83
2021/07/07 06:57:09;;;;;;;1.77;1.67;;;16.90;99.90;;;;;;4960403;28;20088;-84
2021/07/07 06:59:36;;;;;;;1.98;1.85;;;16.90;99.90;;;;;;4967268;28;20449;-83
2021/07/07 07:02:04;;;;;;;2.15;1.70;;;16.90;99.90;;;;;;4955203;28;20033;-83
2021/07/07 07:04:30;;;;;;;1.92;1.83;;;16.90;99.90;;;;;;4950941;28;20125;-84
2021/07/07 07:06:57;;;;;;;4.78;1.67;;;16.90;99.90;;;;;;4944822;28;20069;-84
2021/07/07 07:09:26;;;;;;;1.85;1.38;;;16.90;99.90;;;;;;4958120;28;20046;-83
2021/07/07 07:11:53;;;;;;;1.73;1.63;;;16.90;99.90;;;;;;4973889;28;20162;-83
2021/07/07 07:14:19;;;;;;;2.97;1.60;;;16.90;99.90;;;;;;4971192;28;20025;-83
2021/07/07 07:16:45;;;;;;;1.98;1.80;;;16.90;99.90;;;;;;4986386;28;20570;-83
2021/07/07 07:19:13;;;;;;;1.83;1.70;;;17.00;99.90;;;;;;4958381;28;20509;-83
2021/07/07 07:21:40;;;;;;;2.05;1.85;;;17.00;99.90;;;;;;4969974;28;20026;-83
2021/07/07 07:24:06;;;;;;;2.13;1.65;;;17.10;99.90;;;;;;4972779;28;20039;-83
2021/07/07 07:26:33;;;;;;;1.80;1.70;;;17.10;99.90;;;;;;4969954;28;20027;-83
2021/07/07 07:29:00;;;;;;;2.40;1.52;;;17.10;99.90;;;;;;4972593;28;20556;-83
2021/07/07 07:31:26;;;;;;;1.77;1.63;;;17.20;99.90;;;;;;4974039;28;20366;-84
2021/07/07 07:33:51;;;;;;;2.40;2.20;;;17.20;99.90;;;;;;4975227;28;20033;-83
2021/07/07 07:36:19;;;;;;;1.60;1.50;;;17.30;99.90;;;;;;4984571;28;20046;-83
2021/07/07 07:38:47;;;;;;;1.70;1.60;;;17.40;99.90;;;;;;4967354;28;20030;-85
2021/07/07 07:41:14;;;;;;;2.40;1.80;;;17.40;99.90;;;;;;4962605;28;20042;-84
2021/07/07 07:43:42;;;;;;;1.90;1.80;;;17.40;99.90;;;;;;4970065;28;20056;-83
2021/07/07 07:46:07;;;;;;;2.03;1.48;;;17.50;99.90;;;;;;4967386;28;20062;-84
2021/07/07 07:48:33;;;;;;;2.25;1.60;;;17.50;99.90;;;;;;4953562;28;20108;-85
2021/07/07 07:51:00;;;;;;;1.50;1.40;;;17.50;99.90;;;;;;4951113;28;20043;-85
2021/07/07 07:53:25;;;;;;;3.30;1.70;;;17.50;99.90;;;;;;4980880;28;20461;-84
2021/07/07 07:55:51;;;;;;;1.58;1.48;;;17.60;99.90;;;;;;4966657;28;20088;-84
2021/07/07 07:58:18;;;;;;;1.60;1.50;;;17.50;99.90;;;;;;4968458;28;20028;-84
2021/07/07 08:00:46;;;;;;;1.70;1.60;;;17.50;99.90;;;;;;4963949;28;20036;-84
2021/07/07 08:03:12;;;;;;;2.08;1.92;;;17.50;99.90;;;;;;4981038;28;20400;-83
2021/07/07 08:05:39;;;;;;;1.63;1.42;;;17.40;99.90;;;;;;4977757;28;20049;-85
2021/07/07 08:08:05;;;;;;;1.70;1.55;;;17.40;99.90;;;;;;4964397;28;20046;-83
2021/07/07 08:10:32;;;;;;;1.70;1.60;;;17.40;99.90;;;;;;4959528;28;20039;-83
2021/07/07 08:12:58;;;;;;;2.17;1.75;;;17.50;99.90;;;;;;4957354;28;20125;-83
2021/07/07 08:15:25;;;;;;;2.88;1.60;;;17.40;99.90;;;;;;4951092;28;20117;-82
2021/07/07 08:17:53;;;;;;;1.48;1.35;;;17.50;99.90;;;;;;4966565;28;20054;-83
2021/07/07 08:20:19;;;;;;;1.80;1.70;;;17.60;99.90;;;;;;4976074;28;20141;-83
2021/07/07 08:22:46;;;;;;;2.58;1.75;;;17.60;99.90;;;;;;4974636;28;20030;-83
2021/07/07 08:25:12;;;;;;;2.35;1.52;;;17.60;99.90;;;;;;4967795;28;20034;-82
2021/07/07 08:27:39;;;;;;;1.70;1.60;;;17.60;99.90;;;;;;4987211;28;20113;-82
2021/07/07 08:30:08;;;;;;;1.85;1.75;;;17.50;99.90;;;;;;4967754;28;20035;-82
2021/07/07 08:32:34;;;;;;;2.30;2.10;;;17.60;99.90;;;;;;4949865;28;20283;-83
2021/07/07 08:34:59;;;;;;;2.00;1.90;;;17.70;99.90;;;;;;4964806;28;20062;-83
2021/07/07 08:37:25;;;;;;;1.58;1.48;;;17.80;99.90;;;;;;4957454;28;20381;-83
2021/07/07 08:39:51;;;;;;;2.10;1.90;;;17.80;99.90;;;;;;4951336;28;20033;-83
2021/07/07 08:42:17;;;;;;;1.75;1.30;;;17.90;99.90;;;;;;4981702;28;20531;-84
2021/07/07 08:44:44;;;;;;;1.50;1.40;;;18.00;99.90;;;;;;4958292;28;20129;-83
2021/07/07 08:47:10;;;;;;;1.70;1.60;;;18.10;99.90;;;;;;4977014;28;20113;-82
2021/07/07 08:49:36;;;;;;;1.70;1.60;;;18.10;99.90;;;;;;4963747;28;20078;-82
2021/07/07 08:52:03;;;;;;;2.10;1.50;;;18.30;99.90;;;;;;4950270;28;20023;-83
2021/07/07 08:54:31;;;;;;;2.63;1.58;;;18.40;99.90;;;;;;4964291;28;20034;-83
2021/07/07 08:56:58;;;;;;;4.47;1.80;;;18.50;99.90;;;;;;4954676;28;20022;-84
2021/07/07 08:59:24;;;;;;;1.52;1.42;;;18.70;99.90;;;;;;4966799;28;20081;-84
2021/07/07 09:02:07;;;;;;;1.90;1.65;;;18.70;99.90;;;;;;4952987;28;20038;-84
2021/07/07 09:04:35;;;;;;;1.77;1.60;;;18.90;99.90;;;;;;4966088;28;20031;-83
2021/07/07 09:07:24;;;;;;;3.63;1.40;;;19.00;99.90;;;;;;4973815;28;20033;-83
2021/07/07 09:09:52;;;;;;;2.20;1.38;;;19.00;99.90;;;;;;4966245;28;20037;-83
2021/07/07 09:12:34;;;;;;;2.63;1.70;;;19.20;99.90;;;;;;4948967;28;20031;-83
2021/07/07 09:15:01;;;;;;;1.52;1.42;;;19.30;99.90;;;;;;4971124;28;20057;-83
2021/07/07 09:17:27;;;;;;;1.75;1.15;;;19.40;99.90;;;;;;4964235;28;20193;-82
2021/07/07 09:19:53;;;;;;;2.00;1.30;;;19.30;99.90;;;;;;4965121;28;20130;-83
2021/07/07 09:22:24;;;;;;;2.35;1.65;;;19.30;99.90;;;;;;4973822;28;20495;-83
2021/07/07 09:24:59;;;;;;;1.77;1.67;;;19.30;99.90;;;;;;4972469;28;20026;-83
2021/07/07 09:27:36;;;;;;;1.60;1.50;;;19.40;99.90;;;;;;4985272;28;20471;-83
2021/07/07 09:30:11;;;;;;;1.40;1.30;;;19.40;99.90;;;;;;4971650;28;20074;-83
2021/07/07 09:32:45;;;;;;;2.10;1.48;;;19.40;99.90;;;;;;4952904;28;20054;-82
2021/07/07 09:35:11;;;;;;;2.63;1.65;;;19.40;99.90;;;;;;4988992;28;20030;-83
2021/07/07 09:37:43;;;;;;;2.15;1.95;;;19.30;99.90;;;;;;4970136;28;20398;-83
2021/07/07 09:40:11;;;;;;;2.50;2.30;;;19.30;99.90;;;;;;4971070;28;20053;-83
2021/07/07 09:42:38;;;;;;;3.85;2.15;;;19.20;99.90;;;;;;4964573;28;20022;-82
2021/07/07 09:45:07;;;;;;;2.10;2.00;;;19.10;99.90;;;;;;4980381;28;20045;-82
2021/07/07 09:47:33;;;;;;;1.75;1.65;;;19.10;99.90;;;;;;4986219;28;20035;-83
2021/07/07 09:49:59;;;;;;;1.85;1.75;;;19.10;99.90;;;;;;4963350;28;20140;-83
2021/07/07 09:52:27;;;;;;;2.42;1.90;;;19.10;99.90;;;;;;4966400;28;20050;-82
2021/07/07 09:54:54;;;;;;;2.00;1.90;;;19.10;99.90;;;;;;4952339;28;21578;-82
2021/07/07 09:57:20;;;;;;;3.33;2.22;;;19.10;99.90;;;;;;4971248;28;20374;-83
2021/07/07 09:59:46;;;;;;;2.50;2.30;;;19.00;99.90;;;;;;4949174;28;20048;-83
2021/07/07 10:02:12;;;;;;;2.50;1.90;;;19.10;99.90;;;;;;4974500;28;20029;-85
2021/07/07 10:04:40;;;;;;;2.92;2.72;;;19.20;99.90;;;;;;4955989;28;20034;-83
2021/07/07 10:07:07;;;;;;;2.30;2.10;;;19.30;99.90;;;;;;4962071;28;20658;-83
2021/07/07 10:09:37;;;;;;;2.90;2.58;;;19.20;99.90;;;;;;4951072;28;20685;-84
2021/07/07 10:12:03;;;;;;;2.58;2.38;;;19.30;99.90;;;;;;4963712;28;20094;-84
2021/07/07 10:14:30;;;;;;;3.40;2.60;;;19.40;99.90;;;;;;4967534;28;20026;-84
2021/07/07 10:16:55;;;;;;;2.83;2.63;;;19.60;99.90;;;;;;4987469;28;20650;-83
2021/07/07 10:19:21;;;;;;;2.20;2.10;;;19.60;99.90;;;;;;4962703;28;20030;-84
2021/07/07 10:21:48;;;;;;;2.20;2.08;;;19.80;99.90;;;;;;4971146;28;20251;-84
2021/07/07 10:24:17;;;;;;;2.10;2.00;;;19.90;99.90;;;;;;4965515;28;20525;-83
2021/07/07 10:26:44;;;;;;;1.75;1.65;;;20.10;99.90;;;;;;4940272;28;20444;-83
2021/07/07 10:29:12;;;;;;;2.60;2.33;;;20.20;99.90;;;;;;4967439;28;20532;-82
2021/07/07 10:31:50;;;;;;;2.03;1.90;;;20.20;99.90;;;;;;4951059;28;20034;-82
2021/07/07 10:34:17;;;;;;;1.88;1.77;;;20.20;99.90;;;;;;4937960;28;20030;-82
2021/07/07 10:36:43;;;;;;;2.42;2.22;;;20.30;99.90;;;;;;4955115;28;20045;-83
2021/07/07 10:39:11;;;;;;;2.00;1.90;;;20.20;99.90;;;;;;4970106;28;20030;-83
2021/07/07 10:41:46;;;;;;;1.50;1.40;;;20.40;99.90;;;;;;4966297;28;20027;-83
2021/07/07 10:44:28;;;;;;;2.08;1.98;;;20.30;99.90;;;;;;4961627;28;20026;-82
2021/07/07 10:47:00;;;;;;;1.65;1.38;;;20.30;99.90;;;;;;4969501;28;20026;-83
2021/07/07 10:49:51;;;;;;;2.30;2.10;;;20.30;99.90;;;;;;4976377;28;20038;-82
2021/07/07 10:52:38;;;;;;;2.00;1.90;;;20.50;99.90;;;;;;4968750;28;20167;-82
2021/07/07 10:55:07;;;;;;;3.65;1.67;;;20.70;99.90;;;;;;4978600;28;20038;-83
2021/07/07 10:57:36;;;;;;;1.80;1.70;;;20.80;99.90;;;;;;4944863;28;20031;-82
2021/07/07 11:00:09;;;;;;;1.60;1.50;;;20.90;99.90;;;;;;4967819;28;20485;-82
2021/07/07 11:02:35;;;;;;;1.77;1.67;;;20.60;99.90;;;;;;4977029;28;20057;-82
2021/07/07 11:05:04;;;;;;;1.50;1.40;;;20.60;99.90;;;;;;4980622;28;20448;-82
2021/07/07 11:07:37;;;;;;;2.63;1.60;;;20.40;99.90;;;;;;4978544;28;20042;-82
2021/07/07 11:10:08;;;;;;;1.60;1.50;;;20.50;99.90;;;;;;4981591;28;20031;-82
2021/07/07 11:12:37;;;;;;;1.85;1.50;;;20.30;99.90;;;;;;4966276;28;20133;-82
2021/07/07 11:15:09;;;;;;;1.88;1.20;;;20.10;99.90;;;;;;4966972;28;20023;-82
2021/07/07 11:17:39;;;;;;;1.83;1.52;;;20.10;99.90;;;;;;4962682;28;20034;-82
2021/07/07 11:20:09;;;;;;;1.70;1.60;;;20.10;99.90;;;;;;4961289;28;20039;-82
2021/07/07 11:22:36;;;;;;;1.65;1.55;;;20.20;99.90;;;;;;4966193;28;20037;-82
2021/07/07 11:25:05;;;;;;;2.00;1.85;;;20.30;99.90;;;;;;4974808;28;20039;-82
2021/07/07 11:27:35;;;;;;;2.30;2.10;;;20.50;99.90;;;;;;4977879;28;20038;-83
2021/07/07 11:30:06;;;;;;;3.10;2.00;;;20.50;99.90;;;;;;4961415;28;20030;-83
2021/07/07 11:32:37;;;;;;;2.10;1.77;;;20.40;99.90;;;;;;4950612;28;20030;-82
2021/07/07 11:35:07;;;;;;;2.08;1.98;;;20.40;99.90;;;;;;4968869;28;20045;-82
2021/07/07 11:37:34;;;;;;;3.25;1.85;;;20.50;99.90;;;;;;4983223;28;20035;-82
2021/07/07 11:40:18;;;;;;;2.40;2.10;;;20.50;99.90;;;;;;4963304;28;20072;-83
2021/07/07 11:43:13;;;;;;;1.98;1.88;;;20.50;99.90;;;;;;4958776;28;20114;-83
2021/07/07 11:45:41;;;;;;;2.30;2.10;;;20.50;99.90;;;;;;4964925;28;20030;-83
2021/07/07 11:51:03;;;;;;;4.15;2.30;;;20.50;99.90;;;;;;4980809;28;20057;-82
2021/07/07 11:53:53;;;;;;;4.07;2.40;;;20.50;99.90;;;;;;4965077;28;20061;-83
2021/07/07 11:56:20;;;;;;;3.45;1.80;;;20.70;99.90;;;;;;4962043;28;20100;-83
2021/07/07 11:58:47;;;;;;;2.35;1.98;;;20.80;99.90;;;;;;4964182;28;20027;-84
2021/07/07 12:01:36;;;;;;;1.70;1.60;;;20.90;99.90;;;;;;4962292;28;20066;-83
2021/07/07 12:04:06;;;;;;;2.20;1.73;;;21.00;99.90;;;;;;4980727;28;20035;-83
2021/07/07 12:06:37;;;;;;;1.30;1.20;;;21.00;99.90;;;;;;4966142;28;20054;-83
2021/07/07 12:09:18;;;;;;;1.40;1.30;;;21.00;99.90;;;;;;4953368;28;20100;-84
2021/07/07 12:11:50;;;;;;;1.40;1.13;;;20.90;99.90;;;;;;4955016;28;20466;-83
2021/07/07 12:14:17;;;;;;;1.30;1.13;;;20.90;99.90;;;;;;4963041;28;20405;-83
2021/07/07 12:16:45;;;;;;;1.88;1.63;;;21.00;99.90;;;;;;4959189;28;20034;-84
2021/07/07 12:19:13;;;;;;;1.10;1.10;;;21.10;99.90;;;;;;4952598;28;20473;-83
2021/07/07 12:21:44;;;;;;;1.40;1.27;;;21.20;99.90;;;;;;4965482;28;20034;-84
2021/07/07 12:24:14;;;;;;;4.80;1.23;;;21.40;99.90;;;;;;4984060;28;20111;-84
2021/07/07 12:26:43;;;;;;;1.10;1.00;;;21.40;99.90;;;;;;4996124;28;20052;-84
2021/07/07 12:29:16;;;;;;;1.20;1.20;;;21.50;99.90;;;;;;4968395;28;20033;-84
2021/07/07 12:31:43;;;;;;;0.98;0.90;;;21.60;99.90;;;;;;4961296;28;20033;-84
2021/07/07 12:34:10;;;;;;;1.20;1.10;;;21.60;99.90;;;;;;4986500;28;20027;-84
2021/07/07 12:36:38;;;;;;;1.20;1.10;;;21.80;99.90;;;;;;4962937;28;20057;-84
2021/07/07 12:39:19;;;;;;;1.63;1.08;;;21.70;99.90;;;;;;4938401;28;20053;-84
2021/07/07 12:41:48;;;;;;;1.15;0.93;;;21.80;99.90;;;;;;4966356;28;20500;-84
2021/07/07 12:44:42;;;;;;;1.20;0.90;;;21.90;99.90;;;;;;4970054;28;20097;-84
2021/07/07 12:47:08;;;;;;;2.17;0.85;;;21.60;99.90;;;;;;4968643;28;20043;-84
2021/07/07 12:49:40;;;;;;;1.50;0.80;;;21.60;99.90;;;;;;4968739;28;20033;-84
2021/07/07 12:52:23;;;;;;;0.90;0.90;;;21.50;99.90;;;;;;4978817;28;20035;-84
2021/07/07 12:55:03;;;;;;;2.45;0.90;;;21.50;99.90;;;;;;4967708;28;20473;-84